createdAt,value
2018-09-06T00:02:24.467Z,11.27
2018-09-06T00:04:52.820Z,8.13
2018-09-06T00:07:21.082Z,9.17
2018-09-06T00:09:49.434Z,10.67
2018-09-06T00:12:17.710Z,9.20
2018-09-06T00:14:46.003Z,7.60
2018-09-06T00:17:14.262Z,8.30
2018-09-06T00:19:42.643Z,8.60
2018-09-06T00:22:10.915Z,9.53
2018-09-06T00:24:39.295Z,8.80
2018-09-06T00:27:08.602Z,10.33
2018-09-06T00:29:37.059Z,9.10
2018-09-06T00:32:05.418Z,9.93
2018-09-06T00:34:33.746Z,9.97
2018-09-06T00:37:02.019Z,8.80
2018-09-06T00:39:31.711Z,9.93
2018-09-06T00:41:59.995Z,9.30
2018-09-06T00:44:28.263Z,10.00
2018-09-06T00:46:56.570Z,12.83
2018-09-06T00:49:24.866Z,11.07
2018-09-06T00:51:53.165Z,13.03
2018-09-06T00:54:21.473Z,10.20
2018-09-06T00:56:49.821Z,8.97
2018-09-06T00:59:22.293Z,10.43
2018-09-06T01:01:50.575Z,10.27
2018-09-06T01:04:18.845Z,9.13
2018-09-06T01:06:47.165Z,11.60
2018-09-06T01:09:15.625Z,9.10
2018-09-06T01:11:43.897Z,13.87
2018-09-06T01:14:12.473Z,10.43
2018-09-06T01:16:40.773Z,14.13
2018-09-06T01:19:09.061Z,10.97
2018-09-06T01:21:37.601Z,11.33
2018-09-06T01:24:06.193Z,14.70
2018-09-06T01:26:34.465Z,13.43
2018-09-06T01:29:02.802Z,12.63
2018-09-06T01:31:31.131Z,13.00
2018-09-06T01:33:59.406Z,13.60
2018-09-06T01:36:32.960Z,14.90
2018-09-06T01:39:01.357Z,12.77
2018-09-06T01:41:29.655Z,14.17
2018-09-06T01:43:57.937Z,12.03
2018-09-06T01:46:26.222Z,12.13
2018-09-06T01:48:54.511Z,13.87
2018-09-06T01:51:22.787Z,14.30
2018-09-06T01:53:51.094Z,11.20
2018-09-06T01:56:19.397Z,14.07
2018-09-06T01:58:47.740Z,13.10
2018-09-06T02:01:16.158Z,12.60
2018-09-06T02:03:44.907Z,14.77
2018-09-06T02:06:13.206Z,14.27
2018-09-06T02:08:41.670Z,14.23
2018-09-06T02:11:09.943Z,14.47
2018-09-06T02:13:38.252Z,15.10
2018-09-06T02:16:06.663Z,15.13
2018-09-06T02:18:34.988Z,15.47
2018-09-06T02:21:03.417Z,13.27
2018-09-06T02:23:32.027Z,16.20
2018-09-06T02:26:00.338Z,17.87
2018-09-06T02:28:28.621Z,13.30
2018-09-06T02:30:56.906Z,15.37
2018-09-06T02:33:25.269Z,21.90
2018-09-06T02:35:53.545Z,21.47
2018-09-06T02:38:21.969Z,17.00
2018-09-06T02:40:50.255Z,18.50
2018-09-06T02:43:18.560Z,18.77
2018-09-06T02:45:46.924Z,18.90
2018-09-06T02:48:15.201Z,17.20
2018-09-06T02:50:48.798Z,19.20
2018-09-06T02:53:17.079Z,18.43
2018-09-06T02:55:46.205Z,18.17
2018-09-06T02:58:14.473Z,18.00
2018-09-06T03:00:42.810Z,21.03
2018-09-06T03:03:11.122Z,16.90
2018-09-06T03:05:39.413Z,19.70
2018-09-06T03:08:07.685Z,21.50
2018-09-06T03:10:38.825Z,23.00
2018-09-06T03:13:07.325Z,16.57
2018-09-06T03:15:35.742Z,18.37
2018-09-06T03:18:04.061Z,21.53
2018-09-06T03:20:32.370Z,22.03
2018-09-06T03:23:00.754Z,22.47
2018-09-06T03:25:29.053Z,22.80
2018-09-06T03:27:57.329Z,20.03
2018-09-06T03:30:25.762Z,21.10
2018-09-06T03:32:54.058Z,19.00
2018-09-06T03:35:22.333Z,22.10
2018-09-06T03:37:50.671Z,22.63
2018-09-06T03:40:18.952Z,21.63
2018-09-06T03:42:47.238Z,22.93
2018-09-06T03:45:15.514Z,18.60
2018-09-06T03:47:43.915Z,21.73
2018-09-06T03:50:12.233Z,23.07
2018-09-06T03:52:40.613Z,21.87
2018-09-06T03:55:08.969Z,22.07
2018-09-06T03:57:37.515Z,22.03
2018-09-06T04:00:05.928Z,23.77
2018-09-06T04:02:34.286Z,21.00
2018-09-06T04:05:02.553Z,24.10
2018-09-06T04:07:30.842Z,22.90
2018-09-06T04:09:59.736Z,24.20
2018-09-06T04:12:28.021Z,24.47
2018-09-06T04:14:56.299Z,27.80
2018-09-06T04:17:24.613Z,21.80
2018-09-06T04:19:52.885Z,22.80
2018-09-06T04:22:21.197Z,27.20
2018-09-06T04:24:49.473Z,22.40
2018-09-06T04:27:17.792Z,23.10
2018-09-06T04:29:46.057Z,23.53
2018-09-06T04:32:14.338Z,21.47
2018-09-06T04:34:42.613Z,23.63
2018-09-06T04:37:11.258Z,26.57
2018-09-06T04:39:39.560Z,23.23
2018-09-06T04:42:07.825Z,28.83
2018-09-06T04:44:36.121Z,22.80
2018-09-06T04:47:04.447Z,27.97
2018-09-06T04:49:32.777Z,26.30
2018-09-06T04:52:01.057Z,26.50
2018-09-06T04:54:29.357Z,25.63
2018-09-06T04:56:57.690Z,24.47
2018-09-06T04:59:26.030Z,31.33
2018-09-06T05:01:54.320Z,24.53
2018-09-06T05:04:22.695Z,25.62
2018-09-06T05:06:50.873Z,27.63
2018-09-06T05:09:19.193Z,33.20
2018-09-06T05:11:47.456Z,28.40
2018-09-06T05:14:15.754Z,27.70
2018-09-06T05:16:44.016Z,30.83
2018-09-06T05:19:12.328Z,28.03
2018-09-06T05:21:40.625Z,27.90
2018-09-06T05:24:08.897Z,28.70
2018-09-06T05:26:37.213Z,30.23
2018-09-06T05:29:05.697Z,29.13
2018-09-06T05:31:34.281Z,27.43
2018-09-06T05:34:02.557Z,28.47
2018-09-06T05:36:30.936Z,29.03
2018-09-06T05:38:59.200Z,27.93
2018-09-06T05:41:27.505Z,29.17
2018-09-06T05:43:55.769Z,35.03
2018-09-06T05:46:24.161Z,26.33
2018-09-06T05:48:52.589Z,32.07
2018-09-06T05:51:20.921Z,31.30
2018-09-06T05:53:49.205Z,29.40
2018-09-06T05:56:17.508Z,28.83
2018-09-06T05:58:45.780Z,30.03
2018-09-06T06:01:14.077Z,28.43
2018-09-06T06:03:42.453Z,29.97
2018-09-06T06:06:10.758Z,26.93
2018-09-06T06:08:41.636Z,30.20
2018-09-06T06:11:09.965Z,28.03
2018-09-06T06:13:38.263Z,29.30
2018-09-06T06:16:06.692Z,28.37
2018-09-06T06:18:35.008Z,25.97
2018-09-06T06:21:03.400Z,29.13
2018-09-06T06:23:31.710Z,22.53
2018-09-06T06:26:00.052Z,29.23
2018-09-06T06:28:28.303Z,28.43
2018-09-06T06:30:56.581Z,28.43
2018-09-06T06:33:24.893Z,31.93
2018-09-06T06:35:54.175Z,26.80
2018-09-06T06:38:22.450Z,31.75
2018-09-06T06:40:50.733Z,25.70
2018-09-06T06:43:19.090Z,26.03
2018-09-06T06:45:47.369Z,30.80
2018-09-06T06:48:15.673Z,26.60
2018-09-06T06:50:44.053Z,25.70
2018-09-06T06:53:12.376Z,28.03
2018-09-06T06:55:41.041Z,27.60
2018-09-06T06:58:09.365Z,30.37
2018-09-06T07:00:39.609Z,27.80
2018-09-06T07:03:08.993Z,23.40
2018-09-06T07:05:37.476Z,25.70
2018-09-06T07:08:06.686Z,19.63
2018-09-06T07:10:35.009Z,22.40
2018-09-06T07:13:03.428Z,26.17
2018-09-06T07:15:32.805Z,27.95
2018-09-06T07:18:01.227Z,20.87
2018-09-06T07:20:29.559Z,29.00
2018-09-06T07:22:57.881Z,22.27
2018-09-06T07:25:26.369Z,21.13
2018-09-06T07:27:54.643Z,23.03
2018-09-06T07:30:22.935Z,23.03
2018-09-06T07:32:51.244Z,22.27
2018-09-06T07:35:19.645Z,26.90
2018-09-06T07:37:47.937Z,22.17
2018-09-06T07:40:16.257Z,25.93
2018-09-06T07:42:44.549Z,20.40
2018-09-06T07:45:12.868Z,18.70
2018-09-06T07:47:41.189Z,19.90
2018-09-06T07:50:09.599Z,19.00
2018-09-06T07:52:37.881Z,18.63
2018-09-06T07:55:06.217Z,20.37
2018-09-06T07:57:34.534Z,16.53
2018-09-06T08:00:02.809Z,15.50
2018-09-06T08:02:31.205Z,17.27
2018-09-06T08:04:59.525Z,18.33
2018-09-06T08:07:27.848Z,18.00
2018-09-06T08:09:56.753Z,15.57
2018-09-06T08:12:25.090Z,17.53
2018-09-06T08:14:53.479Z,19.27
2018-09-06T08:17:21.769Z,15.27
2018-09-06T08:19:50.043Z,16.00
2018-09-06T08:22:18.348Z,17.33
2018-09-06T08:24:46.675Z,15.77
2018-09-06T08:27:15.001Z,15.20
2018-09-06T08:29:43.366Z,16.10
2018-09-06T08:32:11.681Z,14.90
2018-09-06T08:34:39.956Z,16.90
2018-09-06T08:37:08.260Z,17.43
2018-09-06T08:39:36.573Z,18.83
2018-09-06T08:42:04.865Z,16.37
2018-09-06T08:44:33.140Z,16.13
2018-09-06T08:47:01.706Z,14.23
2018-09-06T08:49:30.087Z,15.43
2018-09-06T08:51:58.713Z,18.83
2018-09-06T08:54:27.230Z,17.10
2018-09-06T08:56:55.561Z,19.87
2018-09-06T08:59:23.905Z,15.17
2018-09-06T09:01:52.249Z,15.17
2018-09-06T09:04:20.794Z,16.80
2018-09-06T09:06:49.114Z,14.50
2018-09-06T09:09:17.477Z,16.80
2018-09-06T09:11:45.814Z,14.57
2018-09-06T09:14:14.109Z,14.80
2018-09-06T09:16:42.525Z,18.33
2018-09-06T09:19:10.865Z,14.87
2018-09-06T09:21:39.176Z,15.97
2018-09-06T09:24:07.513Z,22.17
2018-09-06T09:26:36.275Z,15.37
2018-09-06T09:29:04.611Z,16.20
2018-09-06T09:31:33.030Z,15.70
2018-09-06T09:34:01.405Z,17.50
2018-09-06T09:36:29.676Z,19.07
2018-09-06T09:38:58.060Z,15.23
2018-09-06T09:41:26.337Z,16.00
2018-09-06T09:43:54.758Z,13.40
2018-09-06T09:48:51.158Z,16.57
2018-09-06T09:51:19.661Z,13.43
2018-09-06T09:53:47.925Z,13.43
2018-09-06T09:56:16.473Z,13.97
2018-09-06T09:58:44.765Z,11.10
2018-09-06T10:01:13.038Z,12.47
2018-09-06T10:03:46.565Z,15.60
2018-09-06T10:06:20.099Z,11.20
2018-09-06T10:08:53.535Z,12.17
2018-09-06T10:11:21.834Z,12.03
2018-09-06T10:13:50.132Z,11.43
2018-09-06T10:16:18.433Z,12.63
2018-09-06T10:18:46.839Z,13.57
2018-09-06T10:21:15.125Z,11.70
2018-09-06T10:23:43.401Z,13.13
2018-09-06T10:26:11.854Z,10.83
2018-09-06T10:28:40.129Z,9.83
2018-09-06T10:31:08.401Z,10.80
2018-09-06T10:33:36.906Z,12.10
2018-09-06T10:36:05.173Z,11.00
2018-09-06T10:38:33.440Z,9.63
2018-09-06T10:41:01.717Z,10.00
2018-09-06T10:43:29.990Z,10.13
2018-09-06T10:45:58.269Z,9.33
2018-09-06T10:48:26.643Z,9.67
2018-09-06T10:50:55.992Z,13.60
2018-09-06T10:53:24.348Z,11.27
2018-09-06T10:55:52.998Z,9.63
2018-09-06T10:58:22.420Z,13.20
2018-09-06T11:00:54.853Z,9.30
2018-09-06T11:03:23.166Z,15.30
2018-09-06T11:05:51.449Z,11.60
2018-09-06T11:08:19.764Z,9.20
2018-09-06T11:10:48.030Z,15.47
2018-09-06T11:13:16.321Z,9.43
2018-09-06T11:15:44.609Z,8.77
2018-09-06T11:18:13.955Z,8.60
2018-09-06T11:20:42.545Z,8.03
2018-09-06T11:23:11.057Z,8.10
2018-09-06T11:25:39.350Z,8.10
2018-09-06T11:28:07.857Z,7.97
2018-09-06T11:30:36.125Z,7.37
2018-09-06T11:33:04.405Z,8.57
2018-09-06T11:35:34.126Z,12.17
2018-09-06T11:38:02.446Z,15.23
2018-09-06T11:40:30.779Z,8.77
2018-09-06T11:42:59.065Z,13.73
2018-09-06T11:45:27.352Z,9.97
2018-09-06T11:47:55.707Z,9.90
2018-09-06T11:50:24.647Z,12.20
2018-09-06T11:52:53.011Z,10.70
2018-09-06T11:55:21.303Z,12.03
2018-09-06T11:57:49.617Z,10.53
2018-09-06T12:00:17.939Z,7.80
2018-09-06T12:02:46.263Z,9.00
2018-09-06T12:05:14.526Z,11.80
2018-09-06T12:07:42.828Z,7.47
2018-09-06T12:10:11.146Z,8.30
2018-09-06T12:12:39.604Z,9.60
2018-09-06T12:15:07.927Z,7.90
2018-09-06T12:17:36.281Z,7.90
2018-09-06T12:20:04.557Z,9.37
2018-09-06T12:22:32.937Z,12.67
2018-09-06T12:25:01.213Z,9.07
2018-09-06T12:27:29.516Z,10.00
2018-09-06T12:29:57.823Z,7.87
2018-09-06T12:32:26.119Z,7.90
2018-09-06T12:34:54.400Z,7.83
2018-09-06T12:37:22.670Z,7.97
2018-09-06T12:39:50.974Z,8.63
2018-09-06T12:42:19.264Z,8.57
2018-09-06T12:44:47.719Z,10.10
2018-09-06T12:47:16.010Z,9.93
2018-09-06T12:49:44.378Z,10.13
2018-09-06T12:52:12.604Z,13.83
2018-09-06T12:54:40.936Z,9.10
2018-09-06T12:57:09.223Z,8.70
2018-09-06T12:59:37.523Z,7.97
2018-09-06T13:02:05.805Z,9.33
2018-09-06T13:04:34.097Z,11.53
2018-09-06T13:07:02.592Z,10.20
2018-09-06T13:09:30.882Z,11.60
2018-09-06T13:11:59.261Z,9.77
2018-09-06T13:14:27.782Z,9.50
2018-09-06T13:16:57.137Z,8.80
2018-09-06T13:19:25.530Z,8.00
2018-09-06T13:21:53.811Z,9.70
2018-09-06T13:24:22.082Z,8.27
2018-09-06T13:26:50.452Z,9.90
2018-09-06T13:29:18.740Z,14.30
2018-09-06T13:31:47.081Z,8.57
2018-09-06T13:34:15.369Z,9.43
2018-09-06T13:36:43.710Z,11.33
2018-09-06T13:39:14.151Z,11.70
2018-09-06T13:41:42.445Z,8.13
2018-09-06T13:44:10.766Z,11.73
2018-09-06T13:46:39.059Z,10.73
2018-09-06T13:49:07.337Z,7.33
2018-09-06T13:51:35.689Z,9.23
2018-09-06T13:54:03.961Z,10.33
2018-09-06T13:56:32.232Z,9.63
2018-09-06T13:59:00.629Z,8.77
2018-09-06T14:01:28.925Z,10.40
2018-09-06T14:03:57.179Z,14.73
2018-09-06T14:06:25.661Z,8.43
2018-09-06T14:08:54.006Z,9.07
2018-09-06T14:11:22.261Z,9.40
2018-09-06T14:13:50.561Z,9.70
2018-09-06T14:16:18.850Z,9.50
2018-09-06T14:18:47.134Z,10.50
2018-09-06T14:21:15.388Z,8.83
2018-09-06T14:23:43.666Z,10.63
2018-09-06T14:26:11.937Z,13.13
2018-09-06T14:28:40.213Z,15.63
2018-09-06T14:31:08.509Z,11.07
2018-09-06T14:33:36.794Z,9.67
2018-09-06T14:36:05.109Z,12.40
2018-09-06T14:38:33.418Z,13.13
2018-09-06T14:41:01.694Z,9.60
2018-09-06T14:43:29.974Z,14.40
2018-09-06T14:45:58.377Z,11.23
2018-09-06T14:48:26.730Z,12.10
2018-09-06T14:50:55.139Z,15.57
2018-09-06T14:53:23.352Z,10.83
2018-09-06T14:55:51.661Z,11.60
2018-09-06T14:58:19.942Z,12.20
2018-09-06T15:00:48.243Z,10.73
2018-09-06T15:03:16.597Z,10.23
2018-09-06T15:05:44.913Z,14.13
2018-09-06T15:08:13.197Z,10.47
2018-09-06T15:10:41.474Z,10.13
2018-09-06T15:13:09.816Z,16.67
2018-09-06T15:15:38.112Z,15.07
2018-09-06T15:18:06.661Z,16.77
2018-09-06T15:20:34.950Z,11.80
2018-09-06T15:23:03.531Z,13.67
2018-09-06T15:25:31.817Z,19.03
2018-09-06T15:28:00.109Z,15.53
2018-09-06T15:30:28.389Z,12.50
2018-09-06T15:32:56.723Z,11.60
2018-09-06T15:35:25.016Z,12.87
2018-09-06T15:37:53.291Z,11.70
2018-09-06T15:40:21.741Z,14.67
2018-09-06T15:42:50.029Z,10.87
2018-09-06T15:45:18.345Z,13.23
2018-09-06T15:47:46.817Z,11.17
2018-09-06T15:50:15.092Z,13.10
2018-09-06T15:52:43.479Z,11.90
2018-09-06T15:55:11.754Z,12.40
2018-09-06T15:57:40.126Z,13.10
2018-09-06T16:00:08.445Z,14.30
2018-09-06T16:02:36.710Z,10.90
2018-09-06T16:05:05.141Z,12.10
2018-09-06T16:07:33.481Z,11.90
2018-09-06T16:10:01.827Z,14.90
2018-09-06T16:12:30.126Z,13.30
2018-09-06T16:14:58.438Z,13.47
2018-09-06T16:17:26.974Z,12.50
2018-09-06T16:19:55.337Z,13.73
2018-09-06T16:22:23.697Z,14.47
2018-09-06T16:24:51.996Z,15.73
2018-09-06T16:27:20.300Z,12.83
2018-09-06T16:29:48.605Z,12.97
2018-09-06T16:32:16.895Z,13.97
2018-09-06T16:34:45.215Z,19.37
2018-09-06T16:37:13.557Z,12.90
2018-09-06T16:39:41.785Z,12.00
2018-09-06T16:42:10.070Z,30.10
2018-09-06T16:44:38.383Z,13.27
2018-09-06T16:47:06.691Z,16.23
2018-09-06T16:49:34.974Z,12.97
2018-09-06T16:52:03.260Z,14.33
2018-09-06T16:54:31.528Z,12.80
2018-09-06T16:57:00.802Z,15.27
2018-09-06T16:59:29.158Z,11.27
2018-09-06T17:01:57.517Z,12.27
2018-09-06T17:04:25.840Z,15.43
2018-09-06T17:06:54.117Z,14.10
2018-09-06T17:09:22.473Z,12.37
2018-09-06T17:11:50.769Z,18.13
2018-09-06T17:14:19.046Z,12.53
2018-09-06T17:16:47.325Z,12.43
2018-09-06T17:19:15.613Z,12.70
2018-09-06T17:21:43.903Z,12.73
2018-09-06T17:24:13.249Z,12.13
2018-09-06T17:26:41.530Z,11.80
2018-09-06T17:29:09.933Z,12.40
2018-09-06T17:31:38.224Z,15.27
2018-09-06T17:34:06.555Z,13.67
2018-09-06T17:36:34.818Z,12.80
2018-09-06T17:39:03.259Z,13.80
2018-09-06T17:41:31.494Z,12.73
2018-09-06T17:43:59.993Z,14.60
2018-09-06T17:46:28.267Z,15.17
2018-09-06T17:48:56.547Z,15.50
2018-09-06T17:51:24.872Z,13.40
2018-09-06T17:53:53.153Z,12.57
2018-09-06T17:56:21.460Z,14.43
2018-09-06T17:58:49.957Z,11.47
2018-09-06T18:01:29.914Z,13.90
2018-09-06T18:03:58.129Z,17.20
2018-09-06T18:06:26.412Z,15.20
2018-09-06T18:08:54.751Z,14.07
2018-09-06T18:11:23.034Z,15.50
2018-09-06T18:13:51.468Z,15.87
2018-09-06T18:16:20.054Z,12.57
2018-09-06T18:18:48.341Z,12.50
2018-09-06T18:21:16.997Z,12.60
2018-09-06T18:23:45.647Z,16.03
2018-09-06T18:26:13.945Z,17.47
2018-09-06T18:28:42.228Z,19.90
2018-09-06T18:31:11.625Z,15.13
2018-09-06T18:33:39.969Z,15.13
2018-09-06T18:36:08.329Z,16.20
2018-09-06T18:38:37.810Z,15.43
2018-09-06T18:41:06.189Z,21.07
2018-09-06T18:43:34.940Z,18.03
2018-09-06T18:46:05.435Z,14.37
2018-09-06T18:48:33.780Z,17.17
2018-09-06T18:51:04.701Z,12.77
2018-09-06T18:53:34.301Z,17.13
2018-09-06T18:56:02.707Z,13.60
2018-09-06T18:58:30.974Z,12.23
2018-09-06T19:00:59.261Z,16.83
2018-09-06T19:03:28.662Z,15.07
2018-09-06T19:05:56.938Z,13.40
2018-09-06T19:08:25.221Z,13.57
2018-09-06T19:10:53.528Z,18.17
2018-09-06T19:13:23.654Z,21.90
2018-09-06T19:15:51.961Z,16.63
2018-09-06T19:18:20.429Z,14.87
2018-09-06T19:20:48.681Z,16.27
2018-09-06T19:23:21.737Z,16.43
2018-09-06T19:25:51.010Z,17.63
2018-09-06T19:28:19.795Z,14.23
2018-09-06T19:30:48.176Z,13.30
2018-09-06T19:33:16.605Z,14.73
2018-09-06T19:35:46.025Z,14.73
2018-09-06T19:38:15.306Z,13.43
2018-09-06T19:40:43.632Z,12.43
2018-09-06T19:43:11.934Z,14.27
2018-09-06T19:45:41.202Z,14.90
2018-09-06T19:48:10.440Z,14.20
2018-09-06T19:50:39.629Z,17.60
2018-09-06T19:53:08.106Z,14.53
2018-09-06T19:55:36.445Z,12.30
2018-09-06T19:58:05.067Z,14.30
2018-09-06T20:00:33.619Z,12.00
2018-09-06T20:03:01.957Z,14.77
2018-09-06T20:05:30.306Z,12.47
2018-09-06T20:07:58.818Z,12.17
2018-09-06T20:10:27.069Z,13.60
2018-09-06T20:12:55.365Z,16.80
2018-09-06T20:15:23.677Z,15.03
2018-09-06T20:17:51.953Z,14.93
2018-09-06T20:20:20.373Z,12.13
2018-09-06T20:22:48.853Z,21.57
2018-09-06T20:25:17.212Z,16.33
2018-09-06T20:27:45.513Z,17.13
2018-09-06T20:30:13.889Z,16.03
2018-09-06T20:32:42.197Z,21.53
2018-09-06T20:35:10.518Z,17.77
2018-09-06T20:37:38.814Z,18.03
2018-09-06T20:40:07.093Z,18.63
2018-09-06T20:43:59.820Z,16.53
2018-09-06T20:46:28.152Z,20.70
2018-09-06T20:48:56.437Z,17.33
2018-09-06T20:51:24.726Z,23.90
2018-09-06T20:53:53.069Z,21.20
2018-09-06T20:56:21.378Z,21.80
2018-09-06T20:58:49.657Z,18.07
2018-09-06T21:01:18.097Z,21.43
2018-09-06T21:03:46.418Z,19.97
2018-09-06T21:06:14.793Z,21.97
2018-09-06T21:08:43.129Z,17.07
2018-09-06T21:11:11.412Z,21.73
2018-09-06T21:13:39.684Z,18.77
2018-09-06T21:16:08.256Z,17.23
2018-09-06T21:18:36.549Z,22.77
2018-09-06T21:21:04.861Z,17.53
2018-09-06T21:23:33.234Z,20.00
2018-09-06T21:26:01.441Z,17.93
2018-09-06T21:28:29.743Z,19.33
2018-09-06T21:30:58.033Z,19.40
2018-09-06T21:33:26.309Z,15.20
2018-09-06T21:35:55.611Z,17.50
2018-09-06T21:38:23.973Z,16.33
2018-09-06T21:40:52.270Z,19.20
2018-09-06T21:43:20.977Z,16.93
2018-09-06T21:45:49.252Z,22.77
2018-09-06T21:48:17.526Z,15.63
2018-09-06T21:50:45.989Z,20.57
2018-09-06T21:53:14.285Z,14.97
2018-09-06T21:55:43.658Z,18.07
2018-09-06T21:58:11.942Z,20.73
2018-09-06T22:00:40.265Z,17.37
2018-09-06T22:03:14.136Z,17.40
2018-09-06T22:05:42.439Z,19.57
2018-09-06T22:08:10.715Z,17.82
2018-09-06T22:10:38.997Z,19.90
2018-09-06T22:13:07.284Z,27.00
2018-09-06T22:15:35.785Z,15.73
2018-09-06T22:18:04.087Z,19.37
2018-09-06T22:20:32.377Z,18.70
2018-09-06T22:23:00.774Z,21.07
2018-09-06T22:25:29.037Z,17.23
2018-09-06T22:27:57.329Z,18.30
2018-09-06T22:30:25.633Z,18.03
2018-09-06T22:32:54.450Z,15.90
2018-09-06T22:35:22.709Z,16.67
2018-09-06T22:37:51.025Z,18.60
2018-09-06T22:40:19.557Z,17.87
2018-09-06T22:42:47.853Z,15.73
2018-09-06T22:45:16.300Z,19.53
2018-09-06T22:47:44.593Z,19.97
2018-09-06T22:50:12.909Z,19.60
2018-09-06T22:52:41.241Z,16.43
2018-09-06T22:55:09.544Z,18.93
2018-09-06T22:57:37.929Z,18.70
2018-09-06T23:00:06.633Z,17.50
2018-09-06T23:02:40.297Z,15.60
2018-09-06T23:05:08.575Z,17.30
2018-09-06T23:07:36.873Z,18.50
2018-09-06T23:10:07.199Z,25.07
2018-09-06T23:12:35.461Z,22.10
2018-09-06T23:15:03.814Z,16.93
2018-09-06T23:17:32.128Z,19.97
2018-09-06T23:20:00.494Z,19.63
2018-09-06T23:22:28.813Z,18.37
2018-09-06T23:24:57.101Z,16.47
2018-09-06T23:27:26.604Z,20.40
2018-09-06T23:29:55.565Z,18.30
2018-09-06T23:32:23.885Z,20.80
2018-09-06T23:34:52.170Z,19.10
2018-09-06T23:37:20.489Z,25.83
2018-09-06T23:39:48.932Z,17.20
2018-09-06T23:42:17.253Z,21.03
2018-09-06T23:44:45.554Z,19.10
2018-09-06T23:47:13.825Z,21.97
2018-09-06T23:49:42.361Z,23.40
2018-09-06T23:52:10.653Z,22.07
2018-09-06T23:54:39.030Z,19.47
2018-09-06T23:57:08.317Z,20.83
2018-09-06T23:59:36.638Z,23.83
